sensor_id;sensor_type;location;lat;lon;timestamp;temperature;humidity
15700;DHT22;7950;42.744;23.174;2022-08-21T00:13:39;19.10;99.90
15700;DHT22;7950;42.744;23.174;2022-08-21T00:16:08;19.00;99.90
15700;DHT22;7950;42.744;23.174;2022-08-21T00:18:37;18.90;99.90
15700;DHT22;7950;42.744;23.174;2022-08-21T00:21:07;19.00;99.90
15700;DHT22;7950;42.744;23.174;2022-08-21T00:23:35;18.90;99.90
15700;DHT22;7950;42.744;23.174;2022-08-21T00:30:38;18.90;99.90
15700;DHT22;7950;42.744;23.174;2022-08-21T00:33:08;18.90;99.90
15700;DHT22;7950;42.744;23.174;2022-08-21T00:35:39;18.90;99.90
15700;DHT22;7950;42.744;23.174;2022-08-21T00:43:01;18.90;99.90
15700;DHT22;7950;42.744;23.174;2022-08-21T00:45:31;19.00;99.90
15700;DHT22;7950;42.744;23.174;2022-08-21T00:48:02;19.00;99.90
15700;DHT22;7950;42.744;23.174;2022-08-21T00:50:35;18.90;99.90
15700;DHT22;7950;42.744;23.174;2022-08-21T00:53:11;19.00;99.90
15700;DHT22;7950;42.744;23.174;2022-08-21T01:00:32;19.00;99.90
15700;DHT22;7950;42.744;23.174;2022-08-21T01:07:31;18.80;99.90
15700;DHT22;7950;42.744;23.174;2022-08-21T01:14:32;18.70;99.90
15700;DHT22;7950;42.744;23.174;2022-08-21T01:21:52;18.60;99.90
15700;DHT22;7950;42.744;23.174;2022-08-21T01:33:50;18.40;99.90
15700;DHT22;7950;42.744;23.174;2022-08-21T01:36:20;18.40;99.90
15700;DHT22;7950;42.744;23.174;2022-08-21T01:38:50;18.40;99.90
15700;DHT22;7950;42.744;23.174;2022-08-21T01:45:31;18.40;99.90
15700;DHT22;7950;42.744;23.174;2022-08-21T01:48:01;18.50;99.90
15700;DHT22;7950;42.744;23.174;2022-08-21T02:05:02;18.40;99.90
15700;DHT22;7950;42.744;23.174;2022-08-21T02:12:21;18.50;99.90
15700;DHT22;7950;42.744;23.174;2022-08-21T02:19:16;18.40;99.90
15700;DHT22;7950;42.744;23.174;2022-08-21T02:21:46;18.40;99.90
15700;DHT22;7950;42.744;23.174;2022-08-21T02:24:15;18.40;99.90
15700;DHT22;7950;42.744;23.174;2022-08-21T02:35:58;18.40;99.90
15700;DHT22;7950;42.744;23.174;2022-08-21T02:38:31;18.40;99.90
15700;DHT22;7950;42.744;23.174;2022-08-21T02:41:05;18.40;99.90
15700;DHT22;7950;42.744;23.174;2022-08-21T02:43:36;18.40;99.90
15700;DHT22;7950;42.744;23.174;2022-08-21T02:50:42;18.40;99.90
15700;DHT22;7950;42.744;23.174;2022-08-21T02:53:15;18.20;99.90
15700;DHT22;7950;42.744;23.174;2022-08-21T03:00:37;18.10;99.90
15700;DHT22;7950;42.744;23.174;2022-08-21T03:03:06;18.00;99.90
15700;DHT22;7950;42.744;23.174;2022-08-21T03:14:52;17.90;99.90
15700;DHT22;7950;42.744;23.174;2022-08-21T03:17:22;17.90;99.90
15700;DHT22;7950;42.744;23.174;2022-08-21T03:19:56;17.90;99.90
15700;DHT22;7950;42.744;23.174;2022-08-21T03:22:26;17.80;99.90
15700;DHT22;7950;42.744;23.174;2022-08-21T03:34:15;17.90;99.90
15700;DHT22;7950;42.744;23.174;2022-08-21T03:41:27;17.90;99.90
15700;DHT22;7950;42.744;23.174;2022-08-21T03:43:56;18.00;99.90
15700;DHT22;7950;42.744;23.174;2022-08-21T03:51:06;17.90;99.90
15700;DHT22;7950;42.744;23.174;2022-08-21T03:53:35;17.70;99.90
15700;DHT22;7950;42.744;23.174;2022-08-21T04:05:43;17.70;99.90
15700;DHT22;7950;42.744;23.174;2022-08-21T04:16:57;17.60;99.90
15700;DHT22;7950;42.744;23.174;2022-08-21T04:24:09;17.70;99.90
15700;DHT22;7950;42.744;23.174;2022-08-21T04:31:10;17.80;99.90
15700;DHT22;7950;42.744;23.174;2022-08-21T04:33:40;17.90;99.90
15700;DHT22;7950;42.744;23.174;2022-08-21T04:36:09;17.90;99.90
15700;DHT22;7950;42.744;23.174;2022-08-21T04:43:21;17.80;99.90
15700;DHT22;7950;42.744;23.174;2022-08-21T04:50:28;17.80;99.90
15700;DHT22;7950;42.744;23.174;2022-08-21T04:53:00;17.80;99.90
15700;DHT22;7950;42.744;23.174;2022-08-21T05:00:26;17.90;99.90
15700;DHT22;7950;42.744;23.174;2022-08-21T05:12:19;18.00;99.90
15700;DHT22;7950;42.744;23.174;2022-08-21T05:14:48;18.00;99.90
15700;DHT22;7950;42.744;23.174;2022-08-21T05:17:17;18.10;99.90
15700;DHT22;7950;42.744;23.174;2022-08-21T05:19:46;18.10;99.90
15700;DHT22;7950;42.744;23.174;2022-08-21T05:35:55;18.60;99.90
15700;DHT22;7950;42.744;23.174;2022-08-21T05:52:09;18.90;99.90
15700;DHT22;7950;42.744;23.174;2022-08-21T05:54:38;18.90;99.90
15700;DHT22;7950;42.744;23.174;2022-08-21T05:57:07;18.90;99.90
15700;DHT22;7950;42.744;23.174;2022-08-21T06:08:28;19.20;99.90
15700;DHT22;7950;42.744;23.174;2022-08-21T06:20:15;19.50;99.90
15700;DHT22;7950;42.744;23.174;2022-08-21T06:31:55;20.10;99.90
15700;DHT22;7950;42.744;23.174;2022-08-21T06:39:09;20.40;99.90
15700;DHT22;7950;42.744;23.174;2022-08-21T06:41:56;20.40;99.90
15700;DHT22;7950;42.744;23.174;2022-08-21T06:44:25;20.50;99.90
15700;DHT22;7950;42.744;23.174;2022-08-21T07:00:54;21.20;99.90
15700;DHT22;7950;42.744;23.174;2022-08-21T07:08:27;21.30;99.90
15700;DHT22;7950;42.744;23.174;2022-08-21T07:10:58;21.30;99.90
15700;DHT22;7950;42.744;23.174;2022-08-21T07:22:50;20.90;99.90
15700;DHT22;7950;42.744;23.174;2022-08-21T07:25:19;20.80;99.90
15700;DHT22;7950;42.744;23.174;2022-08-21T07:32:14;20.90;99.90
15700;DHT22;7950;42.744;23.174;2022-08-21T07:48:32;21.10;99.90
15700;DHT22;7950;42.744;23.174;2022-08-21T07:51:04;22.10;99.90
15700;DHT22;7950;42.744;23.174;2022-08-21T07:53:35;22.30;99.90
15700;DHT22;7950;42.744;23.174;2022-08-21T07:56:05;22.40;99.90
15700;DHT22;7950;42.744;23.174;2022-08-21T07:58:35;22.60;99.90
15700;DHT22;7950;42.744;23.174;2022-08-21T08:01:05;22.70;99.90
15700;DHT22;7950;42.744;23.174;2022-08-21T08:03:36;22.70;99.90
15700;DHT22;7950;42.744;23.174;2022-08-21T08:06:06;22.90;99.90
15700;DHT22;7950;42.744;23.174;2022-08-21T08:08:39;23.00;99.90
15700;DHT22;7950;42.744;23.174;2022-08-21T08:11:09;23.20;99.90
15700;DHT22;7950;42.744;23.174;2022-08-21T08:13:39;23.40;99.90
15700;DHT22;7950;42.744;23.174;2022-08-21T08:16:09;23.60;99.90
15700;DHT22;7950;42.744;23.174;2022-08-21T08:18:39;23.80;99.90
15700;DHT22;7950;42.744;23.174;2022-08-21T08:21:08;24.00;99.90
15700;DHT22;7950;42.744;23.174;2022-08-21T08:23:38;24.10;99.90
15700;DHT22;7950;42.744;23.174;2022-08-21T08:26:07;24.30;99.90
15700;DHT22;7950;42.744;23.174;2022-08-21T08:28:36;24.50;99.90
15700;DHT22;7950;42.744;23.174;2022-08-21T08:31:05;24.60;99.90
15700;DHT22;7950;42.744;23.174;2022-08-21T08:33:33;24.70;99.90
15700;DHT22;7950;42.744;23.174;2022-08-21T08:36:04;24.70;99.90
15700;DHT22;7950;42.744;23.174;2022-08-21T08:38:34;24.60;99.90
15700;DHT22;7950;42.744;23.174;2022-08-21T08:41:10;24.40;99.90
15700;DHT22;7950;42.744;23.174;2022-08-21T08:43:44;24.20;99.90
15700;DHT22;7950;42.744;23.174;2022-08-21T08:46:22;24.00;99.90
15700;DHT22;7950;42.744;23.174;2022-08-21T08:49:03;24.00;99.90
15700;DHT22;7950;42.744;23.174;2022-08-21T08:51:42;23.90;99.90
15700;DHT22;7950;42.744;23.174;2022-08-21T08:54:24;23.90;99.90
15700;DHT22;7950;42.744;23.174;2022-08-21T08:56:59;24.20;99.90
15700;DHT22;7950;42.744;23.174;2022-08-21T09:02:50;24.30;99.90
15700;DHT22;7950;42.744;23.174;2022-08-21T09:05:25;24.40;99.90
15700;DHT22;7950;42.744;23.174;2022-08-21T09:12:48;24.70;99.90
15700;DHT22;7950;42.744;23.174;2022-08-21T09:20:19;24.80;99.90
15700;DHT22;7950;42.744;23.174;2022-08-21T09:41:32;25.50;99.90
15700;DHT22;7950;42.744;23.174;2022-08-21T09:53:26;26.10;99.90
15700;DHT22;7950;42.744;23.174;2022-08-21T09:56:03;26.20;99.90
15700;DHT22;7950;42.744;23.174;2022-08-21T09:58:52;26.40;99.90
15700;DHT22;7950;42.744;23.174;2022-08-21T10:01:23;26.40;99.90
15700;DHT22;7950;42.744;23.174;2022-08-21T10:04:02;26.30;99.90
15700;DHT22;7950;42.744;23.174;2022-08-21T10:21:04;26.20;99.90
15700;DHT22;7950;42.744;23.174;2022-08-21T10:23:52;26.50;99.90
15700;DHT22;7950;42.744;23.174;2022-08-21T10:30:57;26.70;99.90
15700;DHT22;7950;42.744;23.174;2022-08-21T10:33:40;26.70;99.90
15700;DHT22;7950;42.744;23.174;2022-08-21T11:02:38;26.30;99.90
15700;DHT22;7950;42.744;23.174;2022-08-21T11:09:56;26.20;99.90
15700;DHT22;7950;42.744;23.174;2022-08-21T11:26:08;26.20;99.90
15700;DHT22;7950;42.744;23.174;2022-08-21T11:28:50;26.40;99.90
15700;DHT22;7950;42.744;23.174;2022-08-21T11:31:36;26.50;99.90
15700;DHT22;7950;42.744;23.174;2022-08-21T11:34:23;26.70;99.90
15700;DHT22;7950;42.744;23.174;2022-08-21T11:37:08;27.00;99.90
15700;DHT22;7950;42.744;23.174;2022-08-21T11:39:55;27.00;99.90
15700;DHT22;7950;42.744;23.174;2022-08-21T11:42:38;26.90;99.90
15700;DHT22;7950;42.744;23.174;2022-08-21T11:45:19;26.90;99.90
15700;DHT22;7950;42.744;23.174;2022-08-21T11:48:00;26.90;99.90
15700;DHT22;7950;42.744;23.174;2022-08-21T11:50:36;27.00;99.90
15700;DHT22;7950;42.744;23.174;2022-08-21T11:53:12;27.10;99.90
15700;DHT22;7950;42.744;23.174;2022-08-21T11:55:47;27.00;99.90
15700;DHT22;7950;42.744;23.174;2022-08-21T11:58:25;27.00;99.90
15700;DHT22;7950;42.744;23.174;2022-08-21T12:04:24;26.80;99.90
15700;DHT22;7950;42.744;23.174;2022-08-21T12:06:56;26.70;99.90
15700;DHT22;7950;42.744;23.174;2022-08-21T12:09:39;26.70;99.90
15700;DHT22;7950;42.744;23.174;2022-08-21T12:12:12;26.70;99.90
15700;DHT22;7950;42.744;23.174;2022-08-21T12:15:15;26.60;99.90
15700;DHT22;7950;42.744;23.174;2022-08-21T12:17:59;26.50;99.90
15700;DHT22;7950;42.744;23.174;2022-08-21T12:20:59;26.60;99.90
15700;DHT22;7950;42.744;23.174;2022-08-21T12:23:33;26.60;99.90
15700;DHT22;7950;42.744;23.174;2022-08-21T12:26:27;26.60;99.90
15700;DHT22;7950;42.744;23.174;2022-08-21T12:29:11;26.60;99.90
15700;DHT22;7950;42.744;23.174;2022-08-21T12:31:59;26.60;99.90
15700;DHT22;7950;42.744;23.174;2022-08-21T12:34:34;26.50;99.90
15700;DHT22;7950;42.744;23.174;2022-08-21T12:37:11;26.50;99.90
15700;DHT22;7950;42.744;23.174;2022-08-21T12:39:47;26.40;99.90
15700;DHT22;7950;42.744;23.174;2022-08-21T12:42:22;26.30;99.90
15700;DHT22;7950;42.744;23.174;2022-08-21T12:44:55;26.10;99.90
15700;DHT22;7950;42.744;23.174;2022-08-21T12:47:35;25.90;99.90
15700;DHT22;7950;42.744;23.174;2022-08-21T12:50:17;25.80;99.90
15700;DHT22;7950;42.744;23.174;2022-08-21T12:52:55;25.70;99.90
15700;DHT22;7950;42.744;23.174;2022-08-21T12:55:30;25.60;99.90
15700;DHT22;7950;42.744;23.174;2022-08-21T12:57:59;25.50;99.90
15700;DHT22;7950;42.744;23.174;2022-08-21T13:00:30;25.50;99.90
15700;DHT22;7950;42.744;23.174;2022-08-21T13:03:00;25.40;99.90
15700;DHT22;7950;42.744;23.174;2022-08-21T13:05:31;25.40;99.90
15700;DHT22;7950;42.744;23.174;2022-08-21T13:08:04;25.30;99.90
15700;DHT22;7950;42.744;23.174;2022-08-21T13:10:36;25.30;99.90
15700;DHT22;7950;42.744;23.174;2022-08-21T13:13:09;25.20;99.90
15700;DHT22;7950;42.744;23.174;2022-08-21T13:16:04;25.10;99.90
15700;DHT22;7950;42.744;23.174;2022-08-21T13:23:24;24.80;99.90
15700;DHT22;7950;42.744;23.174;2022-08-21T13:30:22;24.70;99.90
15700;DHT22;7950;42.744;23.174;2022-08-21T13:32:54;24.70;99.90
15700;DHT22;7950;42.744;23.174;2022-08-21T13:35:28;24.70;99.90
15700;DHT22;7950;42.744;23.174;2022-08-21T13:47:01;24.50;99.90
15700;DHT22;7950;42.744;23.174;2022-08-21T14:05:20;24.40;99.90
15700;DHT22;7950;42.744;23.174;2022-08-21T14:07:59;24.60;99.90
15700;DHT22;7950;42.744;23.174;2022-08-21T14:10:36;24.50;99.90
15700;DHT22;7950;42.744;23.174;2022-08-21T14:13:29;24.50;99.90
15700;DHT22;7950;42.744;23.174;2022-08-21T14:16:12;24.50;99.90
15700;DHT22;7950;42.744;23.174;2022-08-21T14:18:48;24.60;99.90
15700;DHT22;7950;42.744;23.174;2022-08-21T14:21:31;24.60;99.90
15700;DHT22;7950;42.744;23.174;2022-08-21T14:24:09;24.70;99.90
15700;DHT22;7950;42.744;23.174;2022-08-21T14:26:46;24.80;99.90
15700;DHT22;7950;42.744;23.174;2022-08-21T14:29:21;24.80;99.90
15700;DHT22;7950;42.744;23.174;2022-08-21T14:31:59;24.90;99.90
15700;DHT22;7950;42.744;23.174;2022-08-21T14:34:51;24.90;99.90
15700;DHT22;7950;42.744;23.174;2022-08-21T14:37:22;24.90;99.90
15700;DHT22;7950;42.744;23.174;2022-08-21T14:39:51;24.80;99.90
15700;DHT22;7950;42.744;23.174;2022-08-21T14:42:20;24.60;99.90
15700;DHT22;7950;42.744;23.174;2022-08-21T14:44:49;24.50;99.90
15700;DHT22;7950;42.744;23.174;2022-08-21T14:47:18;24.30;99.90
15700;DHT22;7950;42.744;23.174;2022-08-21T14:49:47;24.20;99.90
15700;DHT22;7950;42.744;23.174;2022-08-21T14:52:16;24.00;99.90
15700;DHT22;7950;42.744;23.174;2022-08-21T14:54:47;23.90;99.90
15700;DHT22;7950;42.744;23.174;2022-08-21T14:57:16;23.80;99.90
15700;DHT22;7950;42.744;23.174;2022-08-21T14:59:45;23.70;99.90
15700;DHT22;7950;42.744;23.174;2022-08-21T15:02:15;23.70;99.90
15700;DHT22;7950;42.744;23.174;2022-08-21T15:04:44;23.70;99.90
15700;DHT22;7950;42.744;23.174;2022-08-21T15:07:12;23.70;99.90
15700;DHT22;7950;42.744;23.174;2022-08-21T15:09:41;23.80;99.90
15700;DHT22;7950;42.744;23.174;2022-08-21T15:12:12;23.80;99.90
15700;DHT22;7950;42.744;23.174;2022-08-21T15:14:42;23.80;99.90
15700;DHT22;7950;42.744;23.174;2022-08-21T15:17:11;23.80;99.90
15700;DHT22;7950;42.744;23.174;2022-08-21T15:19:41;23.80;99.90
15700;DHT22;7950;42.744;23.174;2022-08-21T15:22:10;23.80;99.90
15700;DHT22;7950;42.744;23.174;2022-08-21T15:24:46;23.90;99.90
15700;DHT22;7950;42.744;23.174;2022-08-21T15:27:18;23.80;99.90
15700;DHT22;7950;42.744;23.174;2022-08-21T15:29:47;23.90;99.90
15700;DHT22;7950;42.744;23.174;2022-08-21T15:32:21;24.00;99.90
15700;DHT22;7950;42.744;23.174;2022-08-21T15:34:52;24.10;99.90
15700;DHT22;7950;42.744;23.174;2022-08-21T15:37:22;24.20;99.90
15700;DHT22;7950;42.744;23.174;2022-08-21T15:39:51;24.20;99.90
15700;DHT22;7950;42.744;23.174;2022-08-21T15:42:23;24.20;99.90
15700;DHT22;7950;42.744;23.174;2022-08-21T15:44:54;24.30;99.90
15700;DHT22;7950;42.744;23.174;2022-08-21T15:47:29;24.30;99.90
15700;DHT22;7950;42.744;23.174;2022-08-21T15:50:00;24.30;99.90
15700;DHT22;7950;42.744;23.174;2022-08-21T15:52:29;24.40;99.90
15700;DHT22;7950;42.744;23.174;2022-08-21T15:54:58;24.60;99.90
15700;DHT22;7950;42.744;23.174;2022-08-21T15:57:28;24.70;99.90
15700;DHT22;7950;42.744;23.174;2022-08-21T15:59:58;24.70;99.90
15700;DHT22;7950;42.744;23.174;2022-08-21T16:02:33;24.80;99.90
15700;DHT22;7950;42.744;23.174;2022-08-21T16:05:03;24.80;99.90
15700;DHT22;7950;42.744;23.174;2022-08-21T16:07:32;24.80;99.90
15700;DHT22;7950;42.744;23.174;2022-08-21T16:10:01;24.80;99.90
15700;DHT22;7950;42.744;23.174;2022-08-21T16:12:35;24.80;99.90
15700;DHT22;7950;42.744;23.174;2022-08-21T16:15:08;24.80;99.90
15700;DHT22;7950;42.744;23.174;2022-08-21T16:17:48;24.70;99.90
15700;DHT22;7950;42.744;23.174;2022-08-21T16:20:21;24.70;99.90
15700;DHT22;7950;42.744;23.174;2022-08-21T16:22:54;24.60;99.90
15700;DHT22;7950;42.744;23.174;2022-08-21T16:25:25;24.50;99.90
15700;DHT22;7950;42.744;23.174;2022-08-21T16:27:58;24.40;99.90
15700;DHT22;7950;42.744;23.174;2022-08-21T16:30:30;24.30;99.90
15700;DHT22;7950;42.744;23.174;2022-08-21T16:37:06;24.00;99.90
15700;DHT22;7950;42.744;23.174;2022-08-21T16:39:39;23.90;99.90
15700;DHT22;7950;42.744;23.174;2022-08-21T16:42:10;23.80;99.90
15700;DHT22;7950;42.744;23.174;2022-08-21T16:49:18;23.60;99.90
15700;DHT22;7950;42.744;23.174;2022-08-21T16:56:38;23.50;99.90
15700;DHT22;7950;42.744;23.174;2022-08-21T17:11:37;23.40;99.90
15700;DHT22;7950;42.744;23.174;2022-08-21T17:14:11;23.10;99.90
15700;DHT22;7950;42.744;23.174;2022-08-21T17:16:45;23.10;99.90
15700;DHT22;7950;42.744;23.174;2022-08-21T17:19:16;23.00;99.90
15700;DHT22;7950;42.744;23.174;2022-08-21T17:21:45;22.90;99.90
15700;DHT22;7950;42.744;23.174;2022-08-21T17:24:13;22.90;99.90
15700;DHT22;7950;42.744;23.174;2022-08-21T17:26:44;22.80;99.90
15700;DHT22;7950;42.744;23.174;2022-08-21T17:29:15;22.70;99.90
15700;DHT22;7950;42.744;23.174;2022-08-21T17:31:47;22.70;99.90
15700;DHT22;7950;42.744;23.174;2022-08-21T17:34:15;22.70;99.90
15700;DHT22;7950;42.744;23.174;2022-08-21T17:36:44;22.70;99.90
15700;DHT22;7950;42.744;23.174;2022-08-21T17:39:13;22.60;99.90
15700;DHT22;7950;42.744;23.174;2022-08-21T17:41:54;22.60;99.90
15700;DHT22;7950;42.744;23.174;2022-08-21T17:44:25;22.60;99.90
15700;DHT22;7950;42.744;23.174;2022-08-21T17:46:53;22.60;99.90
15700;DHT22;7950;42.744;23.174;2022-08-21T17:49:22;22.60;99.90
15700;DHT22;7950;42.744;23.174;2022-08-21T17:51:51;22.60;99.90
15700;DHT22;7950;42.744;23.174;2022-08-21T17:54:19;22.60;99.90
15700;DHT22;7950;42.744;23.174;2022-08-21T17:56:49;22.50;99.90
15700;DHT22;7950;42.744;23.174;2022-08-21T17:59:19;22.50;99.90
15700;DHT22;7950;42.744;23.174;2022-08-21T18:01:48;22.50;99.90
15700;DHT22;7950;42.744;23.174;2022-08-21T18:04:17;22.40;99.90
15700;DHT22;7950;42.744;23.174;2022-08-21T18:06:46;22.30;99.90
15700;DHT22;7950;42.744;23.174;2022-08-21T18:09:15;22.20;99.90
15700;DHT22;7950;42.744;23.174;2022-08-21T18:11:44;22.10;99.90
15700;DHT22;7950;42.744;23.174;2022-08-21T18:14:12;22.00;99.90
15700;DHT22;7950;42.744;23.174;2022-08-21T18:16:43;22.00;99.90
15700;DHT22;7950;42.744;23.174;2022-08-21T18:19:12;21.80;99.90
15700;DHT22;7950;42.744;23.174;2022-08-21T18:22:09;21.70;99.90
15700;DHT22;7950;42.744;23.174;2022-08-21T18:24:38;21.70;99.90
15700;DHT22;7950;42.744;23.174;2022-08-21T18:27:09;21.60;99.90
15700;DHT22;7950;42.744;23.174;2022-08-21T18:29:39;21.50;99.90
15700;DHT22;7950;42.744;23.174;2022-08-21T18:32:15;21.40;99.90
15700;DHT22;7950;42.744;23.174;2022-08-21T18:39:23;21.30;99.90
15700;DHT22;7950;42.744;23.174;2022-08-21T18:42:08;21.20;99.90
15700;DHT22;7950;42.744;23.174;2022-08-21T18:44:40;21.10;99.90
15700;DHT22;7950;42.744;23.174;2022-08-21T18:47:17;20.90;99.90
15700;DHT22;7950;42.744;23.174;2022-08-21T18:49:50;20.80;99.90
15700;DHT22;7950;42.744;23.174;2022-08-21T18:56:31;20.40;99.90
15700;DHT22;7950;42.744;23.174;2022-08-21T19:16:06;20.20;99.90
15700;DHT22;7950;42.744;23.174;2022-08-21T19:27:44;20.40;99.90
15700;DHT22;7950;42.744;23.174;2022-08-21T19:39:39;20.30;99.90
15700;DHT22;7950;42.744;23.174;2022-08-21T19:42:16;20.30;99.90
15700;DHT22;7950;42.744;23.174;2022-08-21T19:58:47;20.30;99.90
15700;DHT22;7950;42.744;23.174;2022-08-21T20:10:18;20.30;99.90
15700;DHT22;7950;42.744;23.174;2022-08-21T20:12:48;20.20;99.90
15700;DHT22;7950;42.744;23.174;2022-08-21T20:19:51;20.10;99.90
15700;DHT22;7950;42.744;23.174;2022-08-21T20:22:21;20.10;99.90
15700;DHT22;7950;42.744;23.174;2022-08-21T20:33:48;20.10;99.90
15700;DHT22;7950;42.744;23.174;2022-08-21T20:36:19;20.10;99.90
15700;DHT22;7950;42.744;23.174;2022-08-21T20:48:05;20.00;99.90
15700;DHT22;7950;42.744;23.174;2022-08-21T20:59:49;19.80;99.90
15700;DHT22;7950;42.744;23.174;2022-08-21T21:06:47;19.70;99.90
15700;DHT22;7950;42.744;23.174;2022-08-21T21:13:43;19.60;99.90
15700;DHT22;7950;42.744;23.174;2022-08-21T21:16:20;19.50;99.90
15700;DHT22;7950;42.744;23.174;2022-08-21T21:18:58;19.40;99.90
15700;DHT22;7950;42.744;23.174;2022-08-21T21:30:56;19.20;99.90
15700;DHT22;7950;42.744;23.174;2022-08-21T21:37:51;19.20;99.90
15700;DHT22;7950;42.744;23.174;2022-08-21T21:45:02;19.30;99.90
15700;DHT22;7950;42.744;23.174;2022-08-21T21:47:54;19.30;99.90
15700;DHT22;7950;42.744;23.174;2022-08-21T21:59:48;19.40;99.90
15700;DHT22;7950;42.744;23.174;2022-08-21T22:06:41;19.40;99.90
15700;DHT22;7950;42.744;23.174;2022-08-21T22:09:22;19.50;99.90
15700;DHT22;7950;42.744;23.174;2022-08-21T22:12:13;19.50;99.90
15700;DHT22;7950;42.744;23.174;2022-08-21T22:28:39;19.50;99.90
15700;DHT22;7950;42.744;23.174;2022-08-21T22:31:15;19.50;99.90
15700;DHT22;7950;42.744;23.174;2022-08-21T22:37:04;19.60;99.90
15700;DHT22;7950;42.744;23.174;2022-08-21T22:39:34;19.60;99.90
15700;DHT22;7950;42.744;23.174;2022-08-21T22:42:08;19.60;99.90
15700;DHT22;7950;42.744;23.174;2022-08-21T22:44:49;19.50;99.90
15700;DHT22;7950;42.744;23.174;2022-08-21T22:47:20;19.50;99.90
15700;DHT22;7950;42.744;23.174;2022-08-21T22:49:50;19.40;99.90
15700;DHT22;7950;42.744;23.174;2022-08-21T22:52:22;19.40;99.90
15700;DHT22;7950;42.744;23.174;2022-08-21T22:54:54;19.40;99.90
15700;DHT22;7950;42.744;23.174;2022-08-21T22:57:44;19.30;99.90
15700;DHT22;7950;42.744;23.174;2022-08-21T23:00:35;19.30;99.90
15700;DHT22;7950;42.744;23.174;2022-08-21T23:03:04;19.40;99.90
15700;DHT22;7950;42.744;23.174;2022-08-21T23:05:42;19.30;99.90
15700;DHT22;7950;42.744;23.174;2022-08-21T23:08:21;19.30;99.90
15700;DHT22;7950;42.744;23.174;2022-08-21T23:10:55;19.40;99.90
15700;DHT22;7950;42.744;23.174;2022-08-21T23:13:28;19.30;99.90
15700;DHT22;7950;42.744;23.174;2022-08-21T23:16:06;19.30;99.90
15700;DHT22;7950;42.744;23.174;2022-08-21T23:18:49;19.20;99.90
15700;DHT22;7950;42.744;23.174;2022-08-21T23:21:28;19.20;99.90
15700;DHT22;7950;42.744;23.174;2022-08-21T23:24:12;19.20;99.90
15700;DHT22;7950;42.744;23.174;2022-08-21T23:26:53;19.20;99.90
15700;DHT22;7950;42.744;23.174;2022-08-21T23:29:30;19.10;99.90
15700;DHT22;7950;42.744;23.174;2022-08-21T23:32:20;19.20;99.90
15700;DHT22;7950;42.744;23.174;2022-08-21T23:35:07;19.10;99.90
15700;DHT22;7950;42.744;23.174;2022-08-21T23:37:41;19.10;99.90
15700;DHT22;7950;42.744;23.174;2022-08-21T23:40:35;19.10;99.90
15700;DHT22;7950;42.744;23.174;2022-08-21T23:43:24;19.00;99.90
15700;DHT22;7950;42.744;23.174;2022-08-21T23:49:09;19.00;99.90
15700;DHT22;7950;42.744;23.174;2022-08-21T23:51:49;18.90;99.90
15700;DHT22;7950;42.744;23.174;2022-08-21T23:54:24;18.90;99.90
15700;DHT22;7950;42.744;23.174;2022-08-21T23:57:02;18.90;99.90
15700;DHT22;7950;42.744;23.174;2022-08-21T23:59:44;18.90;99.90
